sensor_id;sensor_type;location;lat;lon;timestamp;pressure;altitude;pressure_sealevel;temperature;humidity
27729;BME280;15126;42.186;24.340;2023-02-28T00:00:37;99803.63;;;10.85;78.14
27729;BME280;15126;42.186;24.340;2023-02-28T00:03:04;99807.97;;;10.90;77.93
27729;BME280;15126;42.186;24.340;2023-02-28T00:05:31;99814.53;;;10.76;77.75
27729;BME280;15126;42.186;24.340;2023-02-28T00:07:58;99813.03;;;10.68;78.17
27729;BME280;15126;42.186;24.340;2023-02-28T00:10:26;99805.44;;;10.68;77.64
27729;BME280;15126;42.186;24.340;2023-02-28T00:12:58;99796.97;;;10.49;77.90
27729;BME280;15126;42.186;24.340;2023-02-28T00:15:26;99813.06;;;10.64;78.31
27729;BME280;15126;42.186;24.340;2023-02-28T00:17:53;99813.94;;;10.58;78.12
27729;BME280;15126;42.186;24.340;2023-02-28T00:20:20;99816.69;;;10.61;78.25
27729;BME280;15126;42.186;24.340;2023-02-28T00:22:49;99820.69;;;10.60;78.40
27729;BME280;15126;42.186;24.340;2023-02-28T00:25:18;99815.44;;;10.66;78.38
27729;BME280;15126;42.186;24.340;2023-02-28T00:27:45;99821.44;;;10.64;78.26
27729;BME280;15126;42.186;24.340;2023-02-28T00:30:15;99823.81;;;10.66;78.39
27729;BME280;15126;42.186;24.340;2023-02-28T00:32:42;99834.22;;;10.62;78.69
27729;BME280;15126;42.186;24.340;2023-02-28T00:35:10;99823.47;;;10.60;78.30
27729;BME280;15126;42.186;24.340;2023-02-28T00:37:37;99828.16;;;10.70;78.39
27729;BME280;15126;42.186;24.340;2023-02-28T00:40:05;99815.19;;;10.57;78.60
27729;BME280;15126;42.186;24.340;2023-02-28T00:42:33;99816.41;;;10.52;79.22
27729;BME280;15126;42.186;24.340;2023-02-28T00:45:00;99826.75;;;10.55;79.34
27729;BME280;15126;42.186;24.340;2023-02-28T00:47:30;99834.50;;;10.41;79.88
27729;BME280;15126;42.186;24.340;2023-02-28T00:49:57;99824.13;;;10.41;80.65
27729;BME280;15126;42.186;24.340;2023-02-28T00:52:24;99827.31;;;10.43;80.05
27729;BME280;15126;42.186;24.340;2023-02-28T00:54:51;99835.19;;;10.48;79.61
27729;BME280;15126;42.186;24.340;2023-02-28T00:57:18;99821.25;;;10.48;79.45
27729;BME280;15126;42.186;24.340;2023-02-28T00:59:45;99813.88;;;10.35;80.97
27729;BME280;15126;42.186;24.340;2023-02-28T01:02:12;99810.31;;;10.31;81.22
27729;BME280;15126;42.186;24.340;2023-02-28T01:04:40;99811.88;;;10.35;80.79
27729;BME280;15126;42.186;24.340;2023-02-28T01:07:07;99814.25;;;10.33;81.15
27729;BME280;15126;42.186;24.340;2023-02-28T01:09:34;99822.56;;;10.40;80.99
27729;BME280;15126;42.186;24.340;2023-02-28T01:12:00;99823.47;;;10.30;81.44
27729;BME280;15126;42.186;24.340;2023-02-28T01:14:27;99824.41;;;10.16;81.84
27729;BME280;15126;42.186;24.340;2023-02-28T01:16:54;99809.75;;;10.12;82.23
27729;BME280;15126;42.186;24.340;2023-02-28T01:19:21;99792.47;;;10.25;81.36
27729;BME280;15126;42.186;24.340;2023-02-28T01:21:49;99796.16;;;10.14;81.68
27729;BME280;15126;42.186;24.340;2023-02-28T01:24:16;99807.03;;;10.02;82.37
27729;BME280;15126;42.186;24.340;2023-02-28T01:26:43;99809.75;;;10.09;82.33
27729;BME280;15126;42.186;24.340;2023-02-28T01:29:10;99825.41;;;9.96;82.71
27729;BME280;15126;42.186;24.340;2023-02-28T01:31:37;99808.25;;;9.97;82.70
27729;BME280;15126;42.186;24.340;2023-02-28T01:34:04;99816.53;;;10.08;82.17
27729;BME280;15126;42.186;24.340;2023-02-28T01:36:30;99826.44;;;10.16;82.23
27729;BME280;15126;42.186;24.340;2023-02-28T01:38:59;99820.44;;;10.18;81.97
27729;BME280;15126;42.186;24.340;2023-02-28T01:41:27;99824.41;;;10.16;81.76
27729;BME280;15126;42.186;24.340;2023-02-28T01:44:01;99829.13;;;10.23;81.35
27729;BME280;15126;42.186;24.340;2023-02-28T01:46:30;99835.81;;;10.33;80.35
27729;BME280;15126;42.186;24.340;2023-02-28T01:49:01;99833.31;;;10.38;80.30
27729;BME280;15126;42.186;24.340;2023-02-28T01:51:31;99825.34;;;10.40;79.86
27729;BME280;15126;42.186;24.340;2023-02-28T01:54:04;99837.00;;;10.32;80.65
27729;BME280;15126;42.186;24.340;2023-02-28T01:56:35;99833.06;;;10.26;81.69
27729;BME280;15126;42.186;24.340;2023-02-28T01:59:03;99826.78;;;10.18;81.75
27729;BME280;15126;42.186;24.340;2023-02-28T02:01:30;99833.00;;;10.33;81.22
27729;BME280;15126;42.186;24.340;2023-02-28T02:04:01;99832.78;;;10.16;81.51
27729;BME280;15126;42.186;24.340;2023-02-28T02:06:31;99839.56;;;10.12;82.30
27729;BME280;15126;42.186;24.340;2023-02-28T02:09:02;99832.41;;;10.14;81.82
27729;BME280;15126;42.186;24.340;2023-02-28T02:11:29;99839.91;;;10.21;81.42
27729;BME280;15126;42.186;24.340;2023-02-28T02:14:12;99833.66;;;10.06;82.28
27729;BME280;15126;42.186;24.340;2023-02-28T02:16:57;99837.94;;;10.18;81.95
27729;BME280;15126;42.186;24.340;2023-02-28T02:20:13;99839.19;;;10.13;82.50
27729;BME280;15126;42.186;24.340;2023-02-28T02:23:21;99849.81;;;10.22;82.19
27729;BME280;15126;42.186;24.340;2023-02-28T02:25:56;99852.78;;;10.04;82.71
27729;BME280;15126;42.186;24.340;2023-02-28T02:28:53;99872.28;;;10.08;82.57
27729;BME280;15126;42.186;24.340;2023-02-28T02:31:53;99865.06;;;10.10;82.78
27729;BME280;15126;42.186;24.340;2023-02-28T02:34:39;99866.88;;;9.87;83.16
27729;BME280;15126;42.186;24.340;2023-02-28T02:37:13;99866.06;;;9.90;82.94
27729;BME280;15126;42.186;24.340;2023-02-28T02:39:48;99866.03;;;9.93;82.35
27729;BME280;15126;42.186;24.340;2023-02-28T02:42:23;99874.81;;;9.92;82.80
27729;BME280;15126;42.186;24.340;2023-02-28T02:44:58;99876.03;;;9.87;82.79
27729;BME280;15126;42.186;24.340;2023-02-28T02:47:29;99872.75;;;9.99;81.68
27729;BME280;15126;42.186;24.340;2023-02-28T02:50:02;99881.16;;;9.92;83.09
27729;BME280;15126;42.186;24.340;2023-02-28T02:52:37;99890.38;;;9.86;83.66
27729;BME280;15126;42.186;24.340;2023-02-28T02:55:07;99886.72;;;9.96;82.39
27729;BME280;15126;42.186;24.340;2023-02-28T02:57:40;99881.16;;;9.92;82.23
27729;BME280;15126;42.186;24.340;2023-02-28T03:00:11;99899.72;;;10.09;81.83
27729;BME280;15126;42.186;24.340;2023-02-28T03:02:39;99912.81;;;10.16;81.31
27729;BME280;15126;42.186;24.340;2023-02-28T03:05:14;99912.81;;;10.16;81.24
27729;BME280;15126;42.186;24.340;2023-02-28T03:07:42;99907.28;;;10.12;81.21
27729;BME280;15126;42.186;24.340;2023-02-28T03:10:33;99918.75;;;10.22;81.01
27729;BME280;15126;42.186;24.340;2023-02-28T03:13:11;99927.88;;;10.22;81.04
27729;BME280;15126;42.186;24.340;2023-02-28T03:15:49;99927.94;;;10.19;81.73
27729;BME280;15126;42.186;24.340;2023-02-28T03:18:24;99933.91;;;10.17;82.00
27729;BME280;15126;42.186;24.340;2023-02-28T03:21:02;99942.31;;;10.10;83.01
27729;BME280;15126;42.186;24.340;2023-02-28T03:23:37;99956.63;;;10.08;82.35
27729;BME280;15126;42.186;24.340;2023-02-28T03:26:10;99953.94;;;9.98;81.55
27729;BME280;15126;42.186;24.340;2023-02-28T03:28:42;99956.09;;;9.80;80.80
27729;BME280;15126;42.186;24.340;2023-02-28T03:31:15;99951.06;;;9.61;80.83
27729;BME280;15126;42.186;24.340;2023-02-28T03:33:45;99953.03;;;9.67;80.70
27729;BME280;15126;42.186;24.340;2023-02-28T03:36:24;99923.00;;;9.34;81.29
27729;BME280;15126;42.186;24.340;2023-02-28T03:38:57;99959.88;;;9.48;81.62
27729;BME280;15126;42.186;24.340;2023-02-28T03:41:32;99964.69;;;9.44;81.84
27729;BME280;15126;42.186;24.340;2023-02-28T03:44:03;99966.25;;;9.49;82.08
27729;BME280;15126;42.186;24.340;2023-02-28T03:46:36;99952.75;;;9.47;82.03
27729;BME280;15126;42.186;24.340;2023-02-28T03:49:09;99966.59;;;9.54;81.84
27729;BME280;15126;42.186;24.340;2023-02-28T03:51:42;99975.09;;;9.37;82.69
27729;BME280;15126;42.186;24.340;2023-02-28T03:54:13;99972.69;;;9.39;83.13
27729;BME280;15126;42.186;24.340;2023-02-28T03:56:46;99983.38;;;9.44;83.06
27729;BME280;15126;42.186;24.340;2023-02-28T03:59:18;99986.16;;;9.51;83.00
27729;BME280;15126;42.186;24.340;2023-02-28T04:01:49;99988.06;;;9.57;83.52
27729;BME280;15126;42.186;24.340;2023-02-28T04:04:17;99994.03;;;9.59;83.01
27729;BME280;15126;42.186;24.340;2023-02-28T04:06:49;99996.41;;;9.65;83.31
27729;BME280;15126;42.186;24.340;2023-02-28T04:09:17;100002.28;;;9.74;83.52
27729;BME280;15126;42.186;24.340;2023-02-28T04:11:45;100000.66;;;9.80;83.25
27729;BME280;15126;42.186;24.340;2023-02-28T04:14:14;100003.00;;;9.85;83.55
27729;BME280;15126;42.186;24.340;2023-02-28T04:16:41;99999.84;;;9.86;83.98
27729;BME280;15126;42.186;24.340;2023-02-28T04:19:09;100003.38;;;9.90;84.48
27729;BME280;15126;42.186;24.340;2023-02-28T04:21:38;100012.47;;;9.98;84.80
27729;BME280;15126;42.186;24.340;2023-02-28T04:24:08;100013.31;;;9.91;85.62
27729;BME280;15126;42.186;24.340;2023-02-28T04:26:41;100013.31;;;9.91;86.38
27729;BME280;15126;42.186;24.340;2023-02-28T04:29:10;100017.75;;;9.82;87.48
27729;BME280;15126;42.186;24.340;2023-02-28T04:31:38;100014.88;;;9.92;87.42
27729;BME280;15126;42.186;24.340;2023-02-28T04:34:06;100012.09;;;9.96;88.05
27729;BME280;15126;42.186;24.340;2023-02-28T04:36:33;99990.69;;;9.82;88.52
27729;BME280;15126;42.186;24.340;2023-02-28T04:38:59;100006.19;;;9.87;89.67
27729;BME280;15126;42.186;24.340;2023-02-28T04:41:28;100007.78;;;9.84;90.39
27729;BME280;15126;42.186;24.340;2023-02-28T04:43:55;100019.69;;;9.92;90.41
27729;BME280;15126;42.186;24.340;2023-02-28T04:46:22;100022.88;;;9.87;90.78
27729;BME280;15126;42.186;24.340;2023-02-28T04:48:49;100012.50;;;9.94;90.92
27729;BME280;15126;42.186;24.340;2023-02-28T04:51:17;100011.00;;;9.79;91.59
27729;BME280;15126;42.186;24.340;2023-02-28T04:53:45;100015.75;;;9.86;91.32
27729;BME280;15126;42.186;24.340;2023-02-28T04:56:14;100022.88;;;9.87;91.87
27729;BME280;15126;42.186;24.340;2023-02-28T04:58:43;100023.31;;;9.82;91.72
27729;BME280;15126;42.186;24.340;2023-02-28T05:01:22;100019.78;;;9.78;92.04
27729;BME280;15126;42.186;24.340;2023-02-28T05:03:49;100028.59;;;9.66;91.93
27729;BME280;15126;42.186;24.340;2023-02-28T05:06:17;100026.97;;;9.72;92.20
27729;BME280;15126;42.186;24.340;2023-02-28T05:08:44;100032.50;;;9.79;92.05
27729;BME280;15126;42.186;24.340;2023-02-28T05:11:16;100040.47;;;9.80;91.42
27729;BME280;15126;42.186;24.340;2023-02-28T05:13:45;100039.28;;;9.78;91.56
27729;BME280;15126;42.186;24.340;2023-02-28T05:16:13;100013.19;;;9.47;91.69
27729;BME280;15126;42.186;24.340;2023-02-28T05:18:39;100050.06;;;9.69;91.47
27729;BME280;15126;42.186;24.340;2023-02-28T05:21:26;100046.53;;;9.65;91.84
27729;BME280;15126;42.186;24.340;2023-02-28T05:23:54;100045.44;;;9.44;92.11
27729;BME280;15126;42.186;24.340;2023-02-28T05:26:22;100058.09;;;9.56;92.26
27729;BME280;15126;42.186;24.340;2023-02-28T05:28:50;100060.03;;;9.63;92.00
27729;BME280;15126;42.186;24.340;2023-02-28T05:31:17;100073.97;;;9.63;91.51
27729;BME280;15126;42.186;24.340;2023-02-28T05:33:44;100073.16;;;9.69;90.91
27729;BME280;15126;42.186;24.340;2023-02-28T05:36:11;100074.38;;;9.65;90.85
27729;BME280;15126;42.186;24.340;2023-02-28T05:38:37;100071.19;;;9.63;90.59
27729;BME280;15126;42.186;24.340;2023-02-28T05:41:06;100072.72;;;9.71;90.37
27729;BME280;15126;42.186;24.340;2023-02-28T05:43:33;100074.69;;;9.77;90.25
27729;BME280;15126;42.186;24.340;2023-02-28T05:46:04;100074.72;;;9.74;89.78
27729;BME280;15126;42.186;24.340;2023-02-28T05:48:32;100085.84;;;9.77;89.71
27729;BME280;15126;42.186;24.340;2023-02-28T05:50:59;100094.63;;;9.69;89.95
27729;BME280;15126;42.186;24.340;2023-02-28T05:53:26;100097.47;;;9.54;90.00
27729;BME280;15126;42.186;24.340;2023-02-28T05:55:53;100105.38;;;9.67;90.21
27729;BME280;15126;42.186;24.340;2023-02-28T05:58:20;100107.75;;;9.72;89.66
27729;BME280;15126;42.186;24.340;2023-02-28T06:00:47;100104.59;;;9.63;89.91
27729;BME280;15126;42.186;24.340;2023-02-28T06:03:16;100112.16;;;9.69;89.64
27729;BME280;15126;42.186;24.340;2023-02-28T06:05:42;100115.38;;;9.57;89.77
27729;BME280;15126;42.186;24.340;2023-02-28T06:08:09;100117.78;;;9.55;90.14
27729;BME280;15126;42.186;24.340;2023-02-28T06:10:37;100103.03;;;9.62;89.92
27729;BME280;15126;42.186;24.340;2023-02-28T06:13:06;100109.00;;;9.60;90.09
27729;BME280;15126;42.186;24.340;2023-02-28T06:15:33;100116.16;;;9.65;89.88
27729;BME280;15126;42.186;24.340;2023-02-28T06:18:00;100106.63;;;9.55;89.93
27729;BME280;15126;42.186;24.340;2023-02-28T06:20:28;100112.19;;;9.55;90.38
27729;BME280;15126;42.186;24.340;2023-02-28T06:22:55;100116.16;;;9.61;90.22
27729;BME280;15126;42.186;24.340;2023-02-28T06:25:23;100112.94;;;9.70;89.88
27729;BME280;15126;42.186;24.340;2023-02-28T06:27:50;100112.94;;;9.70;89.36
27729;BME280;15126;42.186;24.340;2023-02-28T06:30:17;100124.81;;;9.81;89.15
27729;BME280;15126;42.186;24.340;2023-02-28T06:32:49;100120.44;;;9.83;89.05
27729;BME280;15126;42.186;24.340;2023-02-28T06:35:16;100121.25;;;9.77;89.13
27729;BME280;15126;42.186;24.340;2023-02-28T06:37:44;100112.16;;;9.69;89.43
27729;BME280;15126;42.186;24.340;2023-02-28T06:40:12;100128.84;;;9.73;89.18
27729;BME280;15126;42.186;24.340;2023-02-28T06:42:39;100122.06;;;9.77;89.42
27729;BME280;15126;42.186;24.340;2023-02-28T06:45:07;100126.38;;;9.85;89.20
27729;BME280;15126;42.186;24.340;2023-02-28T06:47:35;100129.94;;;9.89;88.96
27729;BME280;15126;42.186;24.340;2023-02-28T06:50:03;100130.34;;;9.88;88.46
27729;BME280;15126;42.186;24.340;2023-02-28T06:52:30;100127.50;;;9.95;87.84
27729;BME280;15126;42.186;24.340;2023-02-28T06:54:59;100133.13;;;9.88;88.17
27729;BME280;15126;42.186;24.340;2023-02-28T06:57:27;100133.56;;;9.86;88.00
27729;BME280;15126;42.186;24.340;2023-02-28T06:59:56;100121.56;;;9.89;88.06
27729;BME280;15126;42.186;24.340;2023-02-28T07:02:23;100127.19;;;9.82;88.24
27729;BME280;15126;42.186;24.340;2023-02-28T07:04:50;100131.22;;;9.71;88.47
27729;BME280;15126;42.186;24.340;2023-02-28T07:07:17;100129.59;;;9.77;88.83
27729;BME280;15126;42.186;24.340;2023-02-28T07:09:44;100137.91;;;9.87;88.40
27729;BME280;15126;42.186;24.340;2023-02-28T07:12:12;100139.13;;;9.86;88.99
27729;BME280;15126;42.186;24.340;2023-02-28T07:14:39;100131.53;;;9.87;88.45
27729;BME280;15126;42.186;24.340;2023-02-28T07:17:07;100148.56;;;10.03;87.33
27729;BME280;15126;42.186;24.340;2023-02-28T07:19:34;100149.78;;;10.05;87.28
27729;BME280;15126;42.186;24.340;2023-02-28T07:22:00;100145.41;;;10.01;87.54
27729;BME280;15126;42.186;24.340;2023-02-28T07:24:28;100144.59;;;10.04;87.47
27729;BME280;15126;42.186;24.340;2023-02-28T07:26:55;100150.16;;;10.07;86.94
27729;BME280;15126;42.186;24.340;2023-02-28T07:29:23;100151.75;;;10.05;86.87
27729;BME280;15126;42.186;24.340;2023-02-28T07:31:50;100147.38;;;10.07;87.05
27729;BME280;15126;42.186;24.340;2023-02-28T07:34:18;100150.13;;;10.11;87.38
27729;BME280;15126;42.186;24.340;2023-02-28T07:36:45;100151.72;;;10.19;86.25
27729;BME280;15126;42.186;24.340;2023-02-28T07:39:12;100151.78;;;10.01;86.83
27729;BME280;15126;42.186;24.340;2023-02-28T07:41:39;100154.56;;;10.05;87.51
27729;BME280;15126;42.186;24.340;2023-02-28T07:44:09;100152.13;;;10.10;86.92
27729;BME280;15126;42.186;24.340;2023-02-28T07:46:37;100146.91;;;10.23;86.72
27729;BME280;15126;42.186;24.340;2023-02-28T07:49:04;100145.31;;;10.22;86.40
27729;BME280;15126;42.186;24.340;2023-02-28T07:51:32;100136.63;;;10.13;86.39
27729;BME280;15126;42.186;24.340;2023-02-28T07:53:59;100136.53;;;10.27;86.19
27729;BME280;15126;42.186;24.340;2023-02-28T07:56:27;100150.34;;;10.45;85.90
27729;BME280;15126;42.186;24.340;2023-02-28T07:58:54;100156.72;;;10.45;85.37
27729;BME280;15126;42.186;24.340;2023-02-28T08:01:21;100154.63;;;10.56;84.98
27729;BME280;15126;42.186;24.340;2023-02-28T08:03:50;100146.28;;;10.56;84.79
27729;BME280;15126;42.186;24.340;2023-02-28T08:06:20;100153.91;;;10.49;84.87
27729;BME280;15126;42.186;24.340;2023-02-28T08:08:48;100162.28;;;10.45;85.38
27729;BME280;15126;42.186;24.340;2023-02-28T08:11:16;100178.13;;;10.59;84.26
27729;BME280;15126;42.186;24.340;2023-02-28T08:13:43;100177.81;;;10.46;84.95
27729;BME280;15126;42.186;24.340;2023-02-28T08:16:11;100176.63;;;10.47;85.18
27729;BME280;15126;42.186;24.340;2023-02-28T08:18:39;100175.84;;;10.43;84.88
27729;BME280;15126;42.186;24.340;2023-02-28T08:21:08;100162.75;;;10.37;85.72
27729;BME280;15126;42.186;24.340;2023-02-28T08:23:36;100177.41;;;10.51;84.54
27729;BME280;15126;42.186;24.340;2023-02-28T08:26:03;100180.94;;;10.55;84.68
27729;BME280;15126;42.186;24.340;2023-02-28T08:28:30;100169.38;;;10.57;85.21
27729;BME280;15126;42.186;24.340;2023-02-28T08:30:57;100169.75;;;10.59;85.36
27729;BME280;15126;42.186;24.340;2023-02-28T08:33:25;100151.44;;;10.58;84.96
27729;BME280;15126;42.186;24.340;2023-02-28T08:35:53;100160.53;;;10.65;84.75
27729;BME280;15126;42.186;24.340;2023-02-28T08:38:22;100166.06;;;10.76;84.46
27729;BME280;15126;42.186;24.340;2023-02-28T08:40:49;100158.91;;;10.71;84.10
27729;BME280;15126;42.186;24.340;2023-02-28T08:43:16;100162.50;;;10.68;84.35
27729;BME280;15126;42.186;24.340;2023-02-28T08:45:46;100166.06;;;10.76;84.46
27729;BME280;15126;42.186;24.340;2023-02-28T08:48:13;100157.75;;;10.65;85.24
27729;BME280;15126;42.186;24.340;2023-02-28T08:50:40;100160.88;;;10.74;84.90
27729;BME280;15126;42.186;24.340;2023-02-28T08:53:06;100162.41;;;10.79;83.60
27729;BME280;15126;42.186;24.340;2023-02-28T08:55:35;100169.19;;;10.82;83.00
27729;BME280;15126;42.186;24.340;2023-02-28T08:58:02;100165.97;;;10.87;82.82
27729;BME280;15126;42.186;24.340;2023-02-28T09:00:29;100167.16;;;10.86;82.81
27729;BME280;15126;42.186;24.340;2023-02-28T09:02:56;100143.28;;;10.81;83.51
27729;BME280;15126;42.186;24.340;2023-02-28T09:05:23;100163.16;;;10.87;82.82
27729;BME280;15126;42.186;24.340;2023-02-28T09:07:50;100169.56;;;10.84;82.72
27729;BME280;15126;42.186;24.340;2023-02-28T09:10:17;100161.91;;;10.95;82.40
27729;BME280;15126;42.186;24.340;2023-02-28T09:12:45;100162.19;;;11.04;83.33
27729;BME280;15126;42.186;24.340;2023-02-28T09:15:12;100164.72;;;10.91;82.72
27729;BME280;15126;42.186;24.340;2023-02-28T09:17:39;100173.00;;;10.98;83.27
27729;BME280;15126;42.186;24.340;2023-02-28T09:20:07;100168.91;;;11.10;82.51
27729;BME280;15126;42.186;24.340;2023-02-28T09:22:34;100169.81;;;11.00;82.48
27729;BME280;15126;42.186;24.340;2023-02-28T09:25:01;100171.81;;;10.99;82.26
27729;BME280;15126;42.186;24.340;2023-02-28T09:27:28;100153.19;;;10.89;82.57
27729;BME280;15126;42.186;24.340;2023-02-28T09:29:56;100159.03;;;11.02;82.37
27729;BME280;15126;42.186;24.340;2023-02-28T09:32:23;100153.53;;;10.95;81.49
27729;BME280;15126;42.186;24.340;2023-02-28T09:34:50;100142.72;;;10.97;81.62
27729;BME280;15126;42.186;24.340;2023-02-28T09:37:17;100135.09;;;11.01;81.82
27729;BME280;15126;42.186;24.340;2023-02-28T09:39:44;100135.88;;;11.05;82.05
27729;BME280;15126;42.186;24.340;2023-02-28T09:42:19;100131.03;;;11.09;82.40
27729;BME280;15126;42.186;24.340;2023-02-28T09:44:48;100136.97;;;11.14;82.06
27729;BME280;15126;42.186;24.340;2023-02-28T09:47:26;100149.22;;;11.27;81.70
27729;BME280;15126;42.186;24.340;2023-02-28T09:49:57;100147.28;;;11.21;81.59
27729;BME280;15126;42.186;24.340;2023-02-28T09:52:28;100144.56;;;11.14;80.94
27729;BME280;15126;42.186;24.340;2023-02-28T09:55:00;100147.59;;;11.30;81.12
27729;BME280;15126;42.186;24.340;2023-02-28T09:57:32;100131.72;;;11.20;80.86
27729;BME280;15126;42.186;24.340;2023-02-28T10:00:07;100142.28;;;11.02;81.90
27729;BME280;15126;42.186;24.340;2023-02-28T10:03:02;100135.91;;;11.01;82.08
27729;BME280;15126;42.186;24.340;2023-02-28T10:05:34;100146.25;;;11.04;81.68
27729;BME280;15126;42.186;24.340;2023-02-28T10:08:10;100135.97;;;10.98;82.50
27729;BME280;15126;42.186;24.340;2023-02-28T10:10:40;100133.53;;;11.00;82.32
27729;BME280;15126;42.186;24.340;2023-02-28T10:13:24;100135.22;;;10.90;82.59
27729;BME280;15126;42.186;24.340;2023-02-28T10:15:56;100138.75;;;10.98;83.31
27729;BME280;15126;42.186;24.340;2023-02-28T10:18:30;100136.72;;;10.98;82.92
27729;BME280;15126;42.186;24.340;2023-02-28T10:21:01;100140.75;;;10.97;83.35
27729;BME280;15126;42.186;24.340;2023-02-28T10:23:34;100136.78;;;10.95;82.71
27729;BME280;15126;42.186;24.340;2023-02-28T10:26:09;100137.59;;;10.92;82.67
27729;BME280;15126;42.186;24.340;2023-02-28T10:28:39;100131.94;;;10.99;82.78
27729;BME280;15126;42.186;24.340;2023-02-28T10:31:11;100129.63;;;10.90;83.06
27729;BME280;15126;42.186;24.340;2023-02-28T10:33:41;100126.84;;;10.90;82.82
27729;BME280;15126;42.186;24.340;2023-02-28T10:36:13;100131.56;;;10.97;82.55
27729;BME280;15126;42.186;24.340;2023-02-28T10:38:43;100129.16;;;10.99;82.43
27729;BME280;15126;42.186;24.340;2023-02-28T10:41:11;100126.31;;;11.06;83.31
27729;BME280;15126;42.186;24.340;2023-02-28T10:43:41;100121.44;;;11.13;82.82
27729;BME280;15126;42.186;24.340;2023-02-28T10:46:14;100123.22;;;10.93;83.07
27729;BME280;15126;42.186;24.340;2023-02-28T10:49:01;100128.78;;;10.97;82.41
27729;BME280;15126;42.186;24.340;2023-02-28T10:51:35;100118.91;;;10.89;82.63
27729;BME280;15126;42.186;24.340;2023-02-28T10:54:03;100112.03;;;10.97;82.94
27729;BME280;15126;42.186;24.340;2023-02-28T10:56:32;100108.03;;;10.98;82.33
27729;BME280;15126;42.186;24.340;2023-02-28T10:59:00;100119.47;;;11.10;82.19
27729;BME280;15126;42.186;24.340;2023-02-28T11:01:37;100105.53;;;11.07;81.87
27729;BME280;15126;42.186;24.340;2023-02-28T11:04:19;100082.47;;;11.03;82.04
27729;BME280;15126;42.186;24.340;2023-02-28T11:06:47;100087.63;;;11.04;82.22
27729;BME280;15126;42.186;24.340;2023-02-28T11:09:21;100093.50;;;11.17;81.71
27729;BME280;15126;42.186;24.340;2023-02-28T11:11:49;100071.78;;;10.98;82.45
27729;BME280;15126;42.186;24.340;2023-02-28T11:14:20;100075.75;;;10.97;82.71
27729;BME280;15126;42.186;24.340;2023-02-28T11:16:48;100084.94;;;10.94;82.96
27729;BME280;15126;42.186;24.340;2023-02-28T11:19:22;100080.22;;;10.87;82.97
27729;BME280;15126;42.186;24.340;2023-02-28T11:21:53;100083.44;;;10.86;83.13
27729;BME280;15126;42.186;24.340;2023-02-28T11:24:26;100082.28;;;10.83;83.23
27729;BME280;15126;42.186;24.340;2023-02-28T11:26:53;100084.75;;;10.74;83.86
27729;BME280;15126;42.186;24.340;2023-02-28T11:29:23;100086.72;;;10.73;83.25
27729;BME280;15126;42.186;24.340;2023-02-28T11:32:05;100080.31;;;10.76;83.73
27729;BME280;15126;42.186;24.340;2023-02-28T11:34:36;100079.16;;;10.74;83.30
27729;BME280;15126;42.186;24.340;2023-02-28T11:37:04;100069.63;;;10.71;83.64
27729;BME280;15126;42.186;24.340;2023-02-28T11:39:32;100080.38;;;10.73;84.36
27729;BME280;15126;42.186;24.340;2023-02-28T11:42:12;100064.38;;;10.77;85.06
27729;BME280;15126;42.186;24.340;2023-02-28T11:44:51;100069.50;;;10.86;84.66
27729;BME280;15126;42.186;24.340;2023-02-28T11:47:28;100070.69;;;10.85;84.98
27729;BME280;15126;42.186;24.340;2023-02-28T11:50:10;100070.56;;;10.95;85.12
27729;BME280;15126;42.186;24.340;2023-02-28T11:52:47;100040.44;;;10.80;85.53
27729;BME280;15126;42.186;24.340;2023-02-28T11:55:19;100041.94;;;10.88;85.76
27729;BME280;15126;42.186;24.340;2023-02-28T11:58:07;100040.22;;;11.01;85.88
27729;BME280;15126;42.186;24.340;2023-02-28T12:00:57;100050.19;;;11.02;86.22
27729;BME280;15126;42.186;24.340;2023-02-28T12:03:32;100045.06;;;10.97;86.27
27729;BME280;15126;42.186;24.340;2023-02-28T12:06:14;100051.34;;;11.04;86.54
27729;BME280;15126;42.186;24.340;2023-02-28T12:08:49;100056.19;;;11.00;85.71
27729;BME280;15126;42.186;24.340;2023-02-28T12:11:29;100057.59;;;10.82;88.27
27729;BME280;15126;42.186;24.340;2023-02-28T12:14:12;100049.22;;;10.82;88.93
27729;BME280;15126;42.186;24.340;2023-02-28T12:16:52;100046.91;;;10.73;91.47
27729;BME280;15126;42.186;24.340;2023-02-28T12:19:27;100041.72;;;10.71;92.69
27729;BME280;15126;42.186;24.340;2023-02-28T12:22:25;100037.19;;;10.47;92.50
27729;BME280;15126;42.186;24.340;2023-02-28T12:28:03;100042.56;;;10.24;94.43
27729;BME280;15126;42.186;24.340;2023-02-28T12:30:32;100048.59;;;10.19;95.31
27729;BME280;15126;42.186;24.340;2023-02-28T12:33:03;100048.97;;;10.21;95.01
27729;BME280;15126;42.186;24.340;2023-02-28T12:35:34;100056.41;;;10.35;94.39
27729;BME280;15126;42.186;24.340;2023-02-28T12:38:10;100050.47;;;10.33;95.55
27729;BME280;15126;42.186;24.340;2023-02-28T12:40:44;100053.53;;;10.45;95.45
27729;BME280;15126;42.186;24.340;2023-02-28T12:43:13;100051.50;;;10.49;93.72
27729;BME280;15126;42.186;24.340;2023-02-28T12:45:45;100056.72;;;10.44;94.54
27729;BME280;15126;42.186;24.340;2023-02-28T12:48:20;100049.63;;;10.36;94.90
27729;BME280;15126;42.186;24.340;2023-02-28T12:50:48;100051.59;;;10.39;94.42
27729;BME280;15126;42.186;24.340;2023-02-28T12:53:24;100045.97;;;10.46;95.11
27729;BME280;15126;42.186;24.340;2023-02-28T12:56:02;100048.22;;;10.13;95.63
27729;BME280;15126;42.186;24.340;2023-02-28T12:58:36;100045.44;;;10.06;95.92
27729;BME280;15126;42.186;24.340;2023-02-28T13:04:43;100050.63;;;10.04;95.90
27729;BME280;15126;42.186;24.340;2023-02-28T13:10:16;100047.88;;;9.97;95.63
27729;BME280;15126;42.186;24.340;2023-02-28T13:12:48;100045.47;;;10.03;96.08
27729;BME280;15126;42.186;24.340;2023-02-28T13:15:19;100020.16;;;9.80;95.79